createdAt,value
2023-02-28T00:01:32.739Z,103337.97
2023-02-28T00:03:59.779Z,103338.88
2023-02-28T00:06:27.135Z,103339.75
2023-02-28T00:08:53.986Z,103327.22
2023-02-28T00:11:20.704Z,103337.09
2023-02-28T00:13:48.430Z,103328.13
2023-02-28T00:16:20.841Z,103325.47
2023-02-28T00:18:49.006Z,103331.66
2023-02-28T00:21:16.926Z,103326.34
2023-02-28T00:23:44.674Z,103331.69
2023-02-28T00:26:11.928Z,103335.25
2023-02-28T00:28:38.618Z,103330.78
2023-02-28T00:31:06.094Z,103335.28
2023-02-28T00:33:32.850Z,103336.19
2023-02-28T00:36:07.887Z,103330.88
2023-02-28T00:38:34.701Z,103328.25
2023-02-28T00:41:05.597Z,103321.97
2023-02-28T00:43:35.032Z,103321.09
2023-02-28T00:46:03.036Z,103321.97
2023-02-28T00:48:29.802Z,103324.66
2023-02-28T00:50:56.500Z,103325.56
2023-02-28T00:53:23.175Z,103332.69
2023-02-28T00:55:51.243Z,103323.66
2023-02-28T00:58:22.126Z,103331.75
2023-02-28T01:00:49.913Z,103323.69
2023-02-28T01:03:18.271Z,103321.00
2023-02-28T01:05:45.478Z,103329.91
2023-02-28T01:08:12.561Z,103323.53
2023-02-28T01:10:39.425Z,103324.44
2023-02-28T01:13:06.296Z,103333.41
2023-02-28T01:15:35.402Z,103334.34
2023-02-28T01:18:02.140Z,103341.53
2023-02-28T01:20:28.848Z,103325.34
2023-02-28T01:22:55.714Z,103335.22
2023-02-28T01:25:22.495Z,103319.22
2023-02-28T01:27:49.189Z,103322.84
2023-02-28T01:30:16.038Z,103325.53
2023-02-28T01:32:42.681Z,103321.97
2023-02-28T01:35:09.647Z,103320.22
2023-02-28T01:37:36.294Z,103308.53
2023-02-28T01:40:03.458Z,103312.06
2023-02-28T01:42:30.089Z,103309.41
2023-02-28T01:45:02.347Z,103304.88
2023-02-28T01:47:37.464Z,103299.56
2023-02-28T01:50:10.794Z,103304.94
2023-02-28T01:52:38.211Z,103296.84
2023-02-28T01:55:07.755Z,103290.56
2023-02-28T01:57:46.816Z,103294.19
2023-02-28T02:00:16.345Z,103293.34
2023-02-28T02:02:46.245Z,103290.63
2023-02-28T02:05:20.003Z,103289.75
2023-02-28T02:07:50.185Z,103292.44
2023-02-28T02:10:18.490Z,103288.84
2023-02-28T02:13:06.943Z,103281.69
2023-02-28T02:16:06.150Z,103294.25
2023-02-28T02:18:45.067Z,103292.50
2023-02-28T02:21:49.445Z,103290.75
2023-02-28T02:24:52.722Z,103291.63
2023-02-28T02:27:46.086Z,103288.94
2023-02-28T02:30:21.745Z,103283.59
2023-02-28T02:33:07.152Z,103288.94
2023-02-28T02:35:38.846Z,103275.50
2023-02-28T02:38:27.143Z,103281.78
2023-02-28T02:41:18.123Z,103276.41
2023-02-28T02:43:47.699Z,103277.31
2023-02-28T02:46:36.029Z,103278.19
2023-02-28T02:49:07.333Z,103274.63
2023-02-28T02:51:34.957Z,103280.09
2023-02-28T02:54:05.024Z,103277.41
2023-02-28T02:56:34.629Z,103274.69
2023-02-28T02:59:05.942Z,103272.03
2023-02-28T03:01:34.134Z,103263.06
2023-02-28T03:04:08.564Z,103266.63
2023-02-28T03:06:36.306Z,103270.22
2023-02-28T03:09:03.896Z,103271.09
2023-02-28T03:11:31.102Z,103272.91
2023-02-28T03:14:28.519Z,103272.06
2023-02-28T03:17:20.004Z,103261.31
2023-02-28T03:20:22.907Z,103267.56
2023-02-28T03:23:16.136Z,103260.41
2023-02-28T03:26:17.591Z,103265.78
2023-02-28T03:29:17.013Z,103268.50
2023-02-28T03:31:55.707Z,103262.25
2023-02-28T03:34:32.603Z,103264.06
2023-02-28T03:37:05.428Z,103262.28
2023-02-28T03:39:40.621Z,103272.13
2023-02-28T03:42:15.219Z,103273.94
2023-02-28T03:44:46.618Z,103273.03
2023-02-28T03:47:23.534Z,103263.19
2023-02-28T03:50:06.268Z,103265.84
2023-02-28T03:52:37.105Z,103273.84
2023-02-28T03:55:10.154Z,103255.09
2023-02-28T03:58:18.360Z,103257.78
2023-02-28T04:00:53.965Z,103257.78
2023-02-28T04:03:20.702Z,103253.31
2023-02-28T04:05:53.028Z,103259.53
2023-02-28T04:08:19.909Z,103254.97
2023-02-28T04:10:54.313Z,103259.44
2023-02-28T04:13:21.088Z,103263.00
2023-02-28T04:15:47.787Z,103261.19
2023-02-28T04:18:14.498Z,103266.56
2023-02-28T04:20:41.189Z,103269.28
2023-02-28T04:23:07.925Z,103270.19
2023-02-28T04:25:34.607Z,103271.03
2023-02-28T04:28:01.254Z,103268.28
2023-02-28T04:30:28.011Z,103269.13
2023-02-28T04:32:54.760Z,103274.41
2023-02-28T04:35:21.454Z,103280.66
2023-02-28T04:37:48.076Z,103275.25
2023-02-28T04:40:14.801Z,103277.88
2023-02-28T04:42:41.410Z,103274.28
2023-02-28T04:45:11.193Z,103277.56
2023-02-28T04:47:38.023Z,103282.81
2023-02-28T04:50:05.151Z,103282.88
2023-02-28T04:52:31.868Z,103271.28
2023-02-28T04:54:58.542Z,103276.63
2023-02-28T04:57:25.250Z,103267.75
2023-02-28T04:59:51.939Z,103271.31
2023-02-28T05:02:18.681Z,103265.97
2023-02-28T05:04:45.433Z,103265.72
2023-02-28T05:07:12.243Z,103273.59
2023-02-28T05:09:38.847Z,103255.84
2023-02-28T05:12:05.669Z,103252.34
2023-02-28T05:14:32.386Z,103245.22
2023-02-28T05:16:59.071Z,103245.19
2023-02-28T05:19:26.190Z,103245.22
2023-02-28T05:21:56.533Z,103250.63
2023-02-28T05:24:26.008Z,103237.28
2023-02-28T05:26:54.795Z,103236.38
2023-02-28T05:29:21.938Z,103240.91
2023-02-28T05:31:48.907Z,103240.84
2023-02-28T05:34:16.607Z,103247.06
2023-02-28T05:36:43.981Z,103247.03
2023-02-28T05:39:14.099Z,103249.00
2023-02-28T05:41:42.332Z,103239.13
2023-02-28T05:44:09.367Z,103245.31
2023-02-28T05:46:36.147Z,103246.91
2023-02-28T05:49:03.145Z,103250.47
2023-02-28T05:51:30.322Z,103254.88
2023-02-28T05:54:01.383Z,103250.41
2023-02-28T05:56:28.249Z,103259.22
2023-02-28T05:58:54.976Z,103261.88
2023-02-28T06:01:26.318Z,103255.72
2023-02-28T06:03:53.042Z,103259.41
2023-02-28T06:06:19.791Z,103250.56
2023-02-28T06:08:46.788Z,103257.72
2023-02-28T06:11:13.555Z,103252.38
2023-02-28T06:13:40.265Z,103257.75
2023-02-28T06:16:07.176Z,103245.38
2023-02-28T06:18:33.849Z,103247.06
2023-02-28T06:21:00.579Z,103242.59
2023-02-28T06:23:27.224Z,103249.44
2023-02-28T06:25:54.318Z,103260.97
2023-02-28T06:28:21.145Z,103250.38
2023-02-28T06:30:49.073Z,103256.63
2023-02-28T06:33:15.756Z,103254.06
2023-02-28T06:35:45.874Z,103247.81
2023-02-28T06:38:12.771Z,103245.22
2023-02-28T06:40:39.428Z,103251.50
2023-02-28T06:43:06.098Z,103249.72
2023-02-28T06:45:32.999Z,103263.94
2023-02-28T06:48:01.194Z,103259.59
2023-02-28T06:50:29.610Z,103250.72
2023-02-28T06:52:56.671Z,103246.25
2023-02-28T06:55:23.536Z,103244.53
2023-02-28T06:57:51.568Z,103243.63
2023-02-28T07:00:18.726Z,103241.09
2023-02-28T07:02:45.633Z,103236.75
2023-02-28T07:05:12.360Z,103237.75
2023-02-28T07:07:41.640Z,103239.59
2023-02-28T07:10:09.256Z,103236.97
2023-02-28T07:12:37.905Z,103238.84
2023-02-28T07:15:06.509Z,103234.44
2023-02-28T07:17:33.227Z,103237.09
2023-02-28T07:19:59.885Z,103231.81
2023-02-28T07:22:26.591Z,103239.91
2023-02-28T07:24:53.246Z,103229.19
2023-02-28T07:27:24.805Z,103229.22
2023-02-28T07:29:51.481Z,103226.56
2023-02-28T07:32:18.341Z,103231.94
2023-02-28T07:34:45.599Z,103233.72
2023-02-28T07:37:12.561Z,103222.09
2023-02-28T07:39:39.331Z,103219.38
2023-02-28T07:42:07.660Z,103209.53
2023-02-28T07:44:34.433Z,103216.59
2023-02-28T07:47:01.302Z,103214.78
2023-02-28T07:49:28.014Z,103212.03
2023-02-28T07:51:54.817Z,103214.66
2023-02-28T07:54:21.450Z,103211.88
2023-02-28T07:56:48.091Z,103222.63
2023-02-28T07:59:14.767Z,103225.25
2023-02-28T08:01:41.628Z,103218.84
2023-02-28T08:04:08.253Z,103217.81
2023-02-28T08:06:34.924Z,103219.38
2023-02-28T08:09:01.626Z,103222.03
2023-02-28T08:11:28.703Z,103219.13
2023-02-28T08:13:56.305Z,103229.94
2023-02-28T08:16:23.487Z,103235.00
2023-02-28T08:18:52.102Z,103242.66
2023-02-28T08:21:19.566Z,103249.59
2023-02-28T08:23:51.511Z,103262.91
2023-02-28T08:26:19.087Z,103269.88
2023-02-28T08:28:46.602Z,103280.53
2023-02-28T08:31:15.551Z,103283.94
2023-02-28T08:33:43.378Z,103302.19
2023-02-28T08:36:10.528Z,103305.53
2023-02-28T08:38:38.035Z,103312.28
2023-02-28T08:41:08.321Z,103322.03
2023-02-28T08:43:35.968Z,103326.28
2023-02-28T08:46:03.525Z,103327.28
2023-02-28T08:48:32.504Z,103327.69
2023-02-28T08:51:10.129Z,103333.09
2023-02-28T08:53:39.038Z,103338.16
2023-02-28T08:56:13.213Z,103335.47
2023-02-28T08:58:43.605Z,103340.94
2023-02-28T09:01:13.286Z,103347.91
2023-02-28T09:03:40.555Z,103346.16
2023-02-28T09:06:07.671Z,103359.59
2023-02-28T09:08:35.015Z,103364.69
2023-02-28T09:11:03.438Z,103367.63
2023-02-28T09:13:31.253Z,103363.09
2023-02-28T09:16:04.132Z,103373.03
2023-02-28T09:18:31.440Z,103365.66
2023-02-28T09:20:58.953Z,103361.97
2023-02-28T09:23:26.220Z,103366.78
2023-02-28T09:25:55.231Z,103372.00
2023-02-28T09:28:22.723Z,103373.84
2023-02-28T09:30:52.564Z,103365.34
2023-02-28T09:33:21.991Z,103367.84
2023-02-28T09:35:58.450Z,103364.69
2023-02-28T09:38:25.398Z,103369.72
2023-02-28T09:40:56.740Z,103366.06
2023-02-28T09:43:27.669Z,103363.63
2023-02-28T09:46:05.745Z,103355.56
2023-02-28T09:48:41.243Z,103354.63
2023-02-28T09:51:25.065Z,103367.13
2023-02-28T09:53:56.707Z,103364.78
2023-02-28T09:56:44.694Z,103356.84
2023-02-28T09:59:37.999Z,103348.81
2023-02-28T10:02:30.844Z,103359.34
2023-02-28T10:05:16.651Z,103343.06
2023-02-28T10:08:08.637Z,103338.22
2023-02-28T10:10:44.765Z,103333.72
2023-02-28T10:13:50.459Z,103317.81
2023-02-28T10:16:49.576Z,103320.09
2023-02-28T10:19:21.262Z,103340.31
2023-02-28T10:22:02.207Z,103345.09
2023-02-28T10:24:40.038Z,103344.56
2023-02-28T10:27:22.558Z,103340.44
2023-02-28T10:29:55.448Z,103330.53
2023-02-28T10:32:29.981Z,103322.06
2023-02-28T10:35:20.257Z,103330.13
2023-02-28T10:37:50.972Z,103334.53
2023-02-28T10:40:23.595Z,103315.41
2023-02-28T10:43:04.292Z,103308.75
2023-02-28T10:45:35.205Z,103297.81
2023-02-28T10:49:00.036Z,103297.50
2023-02-28T10:51:35.443Z,103301.53
2023-02-28T10:54:03.678Z,103295.78
2023-02-28T10:56:31.885Z,103283.66
2023-02-28T10:59:22.170Z,103301.56
2023-02-28T11:01:53.859Z,103312.53
2023-02-28T11:04:23.702Z,103324.22
2023-02-28T11:07:02.103Z,103339.88
2023-02-28T11:09:36.562Z,103350.31
2023-02-28T11:12:06.910Z,103325.06
2023-02-28T11:14:49.167Z,103326.16
2023-02-28T11:17:27.972Z,103314.44
2023-02-28T11:19:59.193Z,103327.44
2023-02-28T11:22:29.928Z,103329.47
2023-02-28T11:25:00.772Z,103330.78
2023-02-28T11:27:46.140Z,103314.38
2023-02-28T11:30:32.054Z,103318.41
2023-02-28T11:32:59.190Z,103313.38
2023-02-28T11:35:32.951Z,103299.06
2023-02-28T11:38:00.213Z,103309.81
2023-02-28T11:40:40.300Z,103321.56
2023-02-28T11:43:30.292Z,103317.59
2023-02-28T11:46:23.592Z,103320.44
2023-02-28T11:49:11.737Z,103328.22
2023-02-28T11:51:51.405Z,103307.78
2023-02-28T11:54:56.036Z,103324.75
2023-02-28T11:57:32.246Z,103300.59
2023-02-28T12:00:09.624Z,103269.09
2023-02-28T12:03:25.443Z,103264.47
2023-02-28T12:06:10.437Z,103264.22
2023-02-28T12:09:04.568Z,103271.81
2023-02-28T12:11:40.422Z,103265.53
2023-02-28T12:14:07.109Z,103262.28
2023-02-28T12:16:46.850Z,103276.75
2023-02-28T12:19:41.774Z,103283.28
2023-02-28T12:22:28.976Z,103296.41
2023-02-28T12:25:25.299Z,103272.56
2023-02-28T12:27:54.286Z,103287.56
2023-02-28T12:30:27.130Z,103269.94
2023-02-28T12:33:13.458Z,103255.34
2023-02-28T12:35:51.076Z,103273.81
2023-02-28T12:38:29.600Z,103253.31
2023-02-28T12:41:07.034Z,103252.22
2023-02-28T12:43:39.017Z,103254.16
2023-02-28T12:46:14.522Z,103252.31
2023-02-28T12:48:51.544Z,103251.34
2023-02-28T12:51:19.643Z,103245.72
2023-02-28T12:54:33.681Z,103225.16
2023-02-28T12:57:28.031Z,103222.47
2023-02-28T13:00:01.757Z,103230.13
2023-02-28T13:02:46.732Z,103210.81
2023-02-28T13:05:37.857Z,103229.84
2023-02-28T13:08:10.735Z,103218.75
2023-02-28T13:10:44.310Z,103195.94
2023-02-28T13:13:20.964Z,103199.03
2023-02-28T13:16:11.117Z,103213.03
2023-02-28T13:18:41.181Z,103201.06
2023-02-28T13:21:24.712Z,103190.03
2023-02-28T13:23:59.112Z,103187.31
2023-02-28T13:26:31.990Z,103185.47
2023-02-28T13:29:21.807Z,103171.00
2023-02-28T13:32:09.370Z,103160.59
2023-02-28T13:34:42.553Z,103157.47
2023-02-28T13:37:18.845Z,103163.75
2023-02-28T13:39:50.239Z,103158.69
2023-02-28T13:42:23.157Z,103196.75
2023-02-28T13:45:05.274Z,103204.53
2023-02-28T13:47:48.840Z,103217.38
2023-02-28T13:50:27.800Z,103218.91
2023-02-28T13:53:03.960Z,103201.19
2023-02-28T13:55:33.873Z,103205.06
2023-02-28T13:58:22.152Z,103216.63
2023-02-28T14:01:07.260Z,103197.06
2023-02-28T14:03:53.407Z,103199.47
2023-02-28T14:06:26.400Z,103207.75
2023-02-28T14:09:04.444Z,103186.22
2023-02-28T14:11:35.902Z,103183.53
2023-02-28T14:14:04.637Z,103163.41
2023-02-28T14:16:51.313Z,103165.44
2023-02-28T14:19:40.027Z,103166.47
2023-02-28T14:22:40.508Z,103187.09
2023-02-28T14:25:34.838Z,103183.53
2023-02-28T14:28:26.155Z,103161.28
2023-02-28T14:31:09.652Z,103153.19
2023-02-28T14:34:05.496Z,103169.66
2023-02-28T14:36:42.504Z,103199.09
2023-02-28T14:39:32.012Z,103192.06
2023-02-28T14:42:06.048Z,103172.19
2023-02-28T14:44:33.502Z,103164.31
2023-02-28T14:47:08.113Z,103163.41
2023-02-28T14:49:45.080Z,103166.09
2023-02-28T14:52:33.630Z,103176.94
2023-02-28T14:55:15.829Z,103198.00
2023-02-28T14:57:53.438Z,103208.50
2023-02-28T15:00:27.739Z,103197.88
2023-02-28T15:02:57.513Z,103171.09
2023-02-28T15:05:28.981Z,103163.47
2023-02-28T15:08:23.699Z,103166.38
2023-02-28T15:10:58.379Z,103180.75
2023-02-28T15:13:45.529Z,103181.50
2023-02-28T15:16:16.612Z,103163.53
2023-02-28T15:19:00.644Z,103180.00
2023-02-28T15:21:54.191Z,103177.47
2023-02-28T15:24:27.561Z,103159.44
2023-02-28T15:27:03.658Z,103173.00
2023-02-28T15:29:36.346Z,103176.94
2023-02-28T15:32:10.066Z,103166.22
2023-02-28T15:34:43.995Z,103163.59
2023-02-28T15:37:41.183Z,103160.25
2023-02-28T15:43:34.622Z,103176.69
2023-02-28T15:46:08.634Z,103184.94
2023-02-28T15:48:43.501Z,103185.13
2023-02-28T15:51:13.179Z,103188.03
2023-02-28T15:53:52.148Z,103193.44
2023-02-28T15:56:28.099Z,103202.56
2023-02-28T15:58:57.477Z,103207.13
2023-02-28T16:01:34.544Z,103208.16
2023-02-28T16:04:13.631Z,103206.56
2023-02-28T16:06:44.075Z,103220.16
2023-02-28T16:09:19.823Z,103220.38
2023-02-28T16:11:53.605Z,103227.69
2023-02-28T16:14:27.883Z,103222.44
2023-02-28T16:16:57.234Z,103210.03
2023-02-28T16:19:24.883Z,103215.44
2023-02-28T16:21:52.163Z,103222.03
2023-02-28T16:24:19.177Z,103226.84
2023-02-28T16:26:52.579Z,103231.59
2023-02-28T16:29:32.866Z,103241.84
2023-02-28T16:32:01.775Z,103248.41
2023-02-28T16:34:28.503Z,103250.41
2023-02-28T16:36:55.179Z,103244.31
2023-02-28T16:39:21.976Z,103260.69
2023-02-28T16:41:51.811Z,103264.59
2023-02-28T16:44:36.583Z,103264.84
2023-02-28T16:47:05.276Z,103267.72
2023-02-28T16:49:32.510Z,103266.16
2023-02-28T16:51:59.311Z,103279.91
2023-02-28T16:54:30.147Z,103280.88
2023-02-28T16:56:57.531Z,103280.09
2023-02-28T16:59:25.955Z,103287.44
2023-02-28T17:01:52.963Z,103290.25
2023-02-28T17:04:20.489Z,103288.56
2023-02-28T17:06:47.428Z,103289.63
2023-02-28T17:09:28.311Z,103304.97
2023-02-28T17:11:57.938Z,103294.25
2023-02-28T17:14:24.701Z,103299.72
2023-02-28T17:16:51.664Z,103298.03
2023-02-28T17:19:18.775Z,103300.81
2023-02-28T17:21:45.925Z,103299.09
2023-02-28T17:24:16.612Z,103302.72
2023-02-28T17:26:45.825Z,103310.00
2023-02-28T17:29:18.989Z,103309.13
2023-02-28T17:31:45.751Z,103306.50
2023-02-28T17:34:12.675Z,103315.53
2023-02-28T17:36:39.389Z,103319.09
2023-02-28T17:39:12.110Z,103319.16
2023-02-28T17:41:38.754Z,103313.78
2023-02-28T17:44:05.540Z,103324.59
2023-02-28T17:46:33.487Z,103328.19
2023-02-28T17:49:00.972Z,103329.13
2023-02-28T17:51:28.143Z,103339.00
2023-02-28T17:53:54.924Z,103334.56
2023-02-28T17:56:26.972Z,103332.78
2023-02-28T17:58:55.606Z,103347.13
2023-02-28T18:01:26.795Z,103342.69
2023-02-28T18:03:54.738Z,103343.56
2023-02-28T18:06:47.445Z,103343.59
2023-02-28T18:09:17.128Z,103342.72
2023-02-28T18:11:46.242Z,103336.47
2023-02-28T18:14:13.036Z,103334.69
2023-02-28T18:16:39.861Z,103345.44
2023-02-28T18:19:07.096Z,103349.00
2023-02-28T18:21:34.007Z,103342.75
2023-02-28T18:24:00.876Z,103342.75
2023-02-28T18:26:28.556Z,103355.28
2023-02-28T18:28:56.153Z,103351.69
2023-02-28T18:31:22.915Z,103354.41
2023-02-28T18:33:51.351Z,103348.13
2023-02-28T18:36:19.457Z,103349.94
2023-02-28T18:38:50.527Z,103350.81
2023-02-28T18:41:20.732Z,103353.50
2023-02-28T18:43:48.292Z,103361.56
2023-02-28T18:46:17.460Z,103363.34
2023-02-28T18:48:45.248Z,103366.91
2023-02-28T18:51:18.917Z,103366.91
2023-02-28T18:53:46.367Z,103358.84
2023-02-28T18:56:15.022Z,103358.88
2023-02-28T18:58:42.448Z,103364.19
2023-02-28T19:01:21.450Z,103356.13
2023-02-28T19:03:49.628Z,103357.94
2023-02-28T19:06:18.924Z,103356.13
2023-02-28T19:08:46.262Z,103351.66
2023-02-28T19:11:18.578Z,103350.75
2023-02-28T19:13:46.477Z,103349.84
2023-02-28T19:16:15.733Z,103355.22
2023-02-28T19:18:42.811Z,103356.09
2023-02-28T19:21:12.294Z,103362.34
2023-02-28T19:23:39.852Z,103356.94
2023-02-28T19:26:11.775Z,103360.50
2023-02-28T19:28:39.183Z,103356.03
2023-02-28T19:31:12.905Z,103352.44
2023-02-28T19:33:39.983Z,103363.16
2023-02-28T19:36:07.093Z,103361.41
2023-02-28T19:38:33.713Z,103359.63
2023-02-28T19:41:06.480Z,103358.69
2023-02-28T19:43:33.555Z,103359.56
2023-02-28T19:46:00.997Z,103364.06
2023-02-28T19:48:28.465Z,103361.34
2023-02-28T19:51:09.338Z,103362.25
2023-02-28T19:53:37.628Z,103358.66
2023-02-28T19:56:05.782Z,103354.22
2023-02-28T19:58:33.587Z,103362.25
2023-02-28T20:01:07.385Z,103356.84
2023-02-28T20:03:34.208Z,103347.91
2023-02-28T20:06:03.789Z,103360.38
2023-02-28T20:08:30.781Z,103357.69
2023-02-28T20:11:03.347Z,103352.25
2023-02-28T20:22:30.457Z,103353.94
2023-02-28T20:24:57.529Z,103353.94
2023-02-28T20:27:24.185Z,103353.03
2023-02-28T20:29:50.930Z,103354.84
2023-02-28T20:32:17.830Z,103352.19
2023-02-28T20:34:44.707Z,103354.81
2023-02-28T20:37:12.128Z,103348.59
2023-02-28T20:39:38.870Z,103353.91
2023-02-28T20:42:05.756Z,103351.19
2023-02-28T20:44:32.594Z,103344.03
2023-02-28T20:46:59.435Z,103340.47
2023-02-28T20:49:26.223Z,103345.84
2023-02-28T20:51:52.962Z,103336.91
2023-02-28T20:54:20.084Z,103332.47
2023-02-28T20:56:47.727Z,103333.34
2023-02-28T20:59:14.437Z,103328.94
2023-02-28T21:01:44.151Z,103323.53
2023-02-28T21:04:11.056Z,103335.97
2023-02-28T21:06:40.203Z,103336.81
2023-02-28T21:09:08.967Z,103335.06
2023-02-28T21:11:38.014Z,103340.41
2023-02-28T21:14:07.135Z,103335.06
2023-02-28T21:16:36.552Z,103340.41
2023-02-28T21:19:04.810Z,103330.56
2023-02-28T21:21:43.796Z,103326.97
2023-02-28T21:24:16.955Z,103333.13
2023-02-28T21:26:45.483Z,103336.69
2023-02-28T21:29:14.015Z,103331.31
2023-02-28T21:31:40.830Z,103322.34
2023-02-28T21:34:09.706Z,103320.44
2023-02-28T21:36:39.662Z,103317.72
2023-02-28T21:39:21.997Z,103311.63
2023-02-28T21:41:49.146Z,103326.88
2023-02-28T21:44:19.038Z,103330.41
2023-02-28T21:46:47.728Z,103318.78
2023-02-28T21:49:15.251Z,103315.22
2023-02-28T21:51:42.812Z,103317.03
2023-02-28T21:54:11.072Z,103320.53
2023-02-28T21:56:38.396Z,103325.84
2023-02-28T21:59:07.392Z,103325.78
2023-02-28T22:01:39.446Z,103326.72
2023-02-28T22:04:08.803Z,103321.38
2023-02-28T22:06:39.392Z,103324.94
2023-02-28T22:09:08.745Z,103319.56
2023-02-28T22:11:39.817Z,103323.06
2023-02-28T22:14:08.336Z,103316.72
2023-02-28T22:16:50.326Z,103311.34
2023-02-28T22:19:19.446Z,103306.94
2023-02-28T22:21:47.403Z,103307.84
2023-02-28T22:24:15.516Z,103316.72
2023-02-28T22:26:42.372Z,103306.03
2023-02-28T22:29:10.566Z,103311.44
2023-02-28T22:31:37.253Z,103311.41
2023-02-28T22:34:09.251Z,103310.50
2023-02-28T22:36:36.628Z,103314.94
2023-02-28T22:39:04.975Z,103311.28
2023-02-28T22:41:32.362Z,103303.25
2023-02-28T22:44:01.971Z,103305.91
2023-02-28T22:46:31.309Z,103302.31
2023-02-28T22:49:00.301Z,103299.59
2023-02-28T22:51:27.709Z,103305.84
2023-02-28T22:53:56.595Z,103305.84
2023-02-28T22:56:25.452Z,103298.72
2023-02-28T22:58:54.761Z,103296.03
2023-02-28T23:01:24.228Z,103304.03
2023-02-28T23:03:51.539Z,103287.97
2023-02-28T23:06:30.423Z,103283.47
2023-02-28T23:09:01.098Z,103282.56
2023-02-28T23:11:31.672Z,103286.94
2023-02-28T23:13:58.840Z,103288.69
2023-02-28T23:16:32.568Z,103293.16
2023-02-28T23:19:01.871Z,103290.44
2023-02-28T23:21:29.414Z,103297.56
2023-02-28T23:23:56.243Z,103293.09
2023-02-28T23:26:23.636Z,103286.88
2023-02-28T23:28:50.535Z,103282.34
2023-02-28T23:31:17.468Z,103278.84
2023-02-28T23:33:44.282Z,103280.66
2023-02-28T23:36:13.614Z,103283.25
2023-02-28T23:38:41.836Z,103278.72
2023-02-28T23:41:10.389Z,103283.81
2023-02-28T23:43:37.581Z,103282.03
2023-02-28T23:46:04.617Z,103279.44
2023-02-28T23:48:31.593Z,103268.09
2023-02-28T23:51:09.276Z,103255.91
2023-02-28T23:53:38.577Z,103242.78
2023-02-28T23:56:06.868Z,103250.88
2023-02-28T23:58:34.294Z,103235.91
